sensor_id;sensor_type;location;lat;lon;timestamp;P1;durP1;ratioP1;P2;durP2;ratioP2
20890;SDS011;10605;52.968;8.844;2023-12-20T00:01:04;18.85;;;2.53;;
20890;SDS011;10605;52.968;8.844;2023-12-20T00:03:29;21.95;;;3.92;;
20890;SDS011;10605;52.968;8.844;2023-12-20T00:05:55;21.23;;;3.13;;
20890;SDS011;10605;52.968;8.844;2023-12-20T00:08:21;20.67;;;2.95;;
20890;SDS011;10605;52.968;8.844;2023-12-20T00:10:46;16.70;;;3.28;;
20890;SDS011;10605;52.968;8.844;2023-12-20T00:13:12;15.80;;;2.70;;
20890;SDS011;10605;52.968;8.844;2023-12-20T00:15:37;16.75;;;3.30;;
20890;SDS011;10605;52.968;8.844;2023-12-20T00:18:03;18.35;;;2.63;;
20890;SDS011;10605;52.968;8.844;2023-12-20T00:20:29;16.48;;;2.47;;
20890;SDS011;10605;52.968;8.844;2023-12-20T00:22:57;18.25;;;2.67;;
20890;SDS011;10605;52.968;8.844;2023-12-20T00:25:23;10.60;;;2.28;;
20890;SDS011;10605;52.968;8.844;2023-12-20T00:27:49;13.05;;;2.47;;
20890;SDS011;10605;52.968;8.844;2023-12-20T00:30:15;20.25;;;2.47;;
20890;SDS011;10605;52.968;8.844;2023-12-20T00:32:41;13.18;;;2.33;;
20890;SDS011;10605;52.968;8.844;2023-12-20T00:35:12;18.92;;;2.78;;
20890;SDS011;10605;52.968;8.844;2023-12-20T00:37:38;22.35;;;3.05;;
20890;SDS011;10605;52.968;8.844;2023-12-20T00:40:04;14.23;;;1.88;;
20890;SDS011;10605;52.968;8.844;2023-12-20T00:42:32;24.70;;;2.90;;
20890;SDS011;10605;52.968;8.844;2023-12-20T00:44:58;22.23;;;2.42;;
20890;SDS011;10605;52.968;8.844;2023-12-20T00:47:25;9.35;;;2.05;;
20890;SDS011;10605;52.968;8.844;2023-12-20T00:49:50;18.40;;;2.58;;
20890;SDS011;10605;52.968;8.844;2023-12-20T00:52:16;15.75;;;2.42;;
20890;SDS011;10605;52.968;8.844;2023-12-20T00:54:43;13.80;;;2.83;;
20890;SDS011;10605;52.968;8.844;2023-12-20T00:57:09;18.20;;;2.90;;
20890;SDS011;10605;52.968;8.844;2023-12-20T00:59:34;24.10;;;3.40;;
20890;SDS011;10605;52.968;8.844;2023-12-20T01:02:00;15.95;;;2.60;;
20890;SDS011;10605;52.968;8.844;2023-12-20T01:04:26;21.13;;;2.40;;
20890;SDS011;10605;52.968;8.844;2023-12-20T01:06:51;22.30;;;2.85;;
20890;SDS011;10605;52.968;8.844;2023-12-20T01:09:17;11.38;;;2.75;;
20890;SDS011;10605;52.968;8.844;2023-12-20T01:11:43;15.85;;;2.40;;
20890;SDS011;10605;52.968;8.844;2023-12-20T01:14:09;19.52;;;3.00;;
20890;SDS011;10605;52.968;8.844;2023-12-20T01:16:34;18.95;;;3.00;;
20890;SDS011;10605;52.968;8.844;2023-12-20T01:19:00;28.48;;;2.33;;
20890;SDS011;10605;52.968;8.844;2023-12-20T01:21:26;16.55;;;3.00;;
20890;SDS011;10605;52.968;8.844;2023-12-20T01:23:51;27.73;;;3.15;;
20890;SDS011;10605;52.968;8.844;2023-12-20T01:26:17;22.88;;;2.38;;
20890;SDS011;10605;52.968;8.844;2023-12-20T01:28:42;20.48;;;2.88;;
20890;SDS011;10605;52.968;8.844;2023-12-20T01:31:08;16.13;;;2.60;;
20890;SDS011;10605;52.968;8.844;2023-12-20T01:33:34;23.30;;;3.03;;
20890;SDS011;10605;52.968;8.844;2023-12-20T01:36:00;24.23;;;2.50;;
20890;SDS011;10605;52.968;8.844;2023-12-20T01:38:25;18.08;;;2.80;;
20890;SDS011;10605;52.968;8.844;2023-12-20T01:40:51;24.33;;;3.65;;
20890;SDS011;10605;52.968;8.844;2023-12-20T01:43:16;21.33;;;2.78;;
20890;SDS011;10605;52.968;8.844;2023-12-20T01:45:42;22.50;;;3.15;;
20890;SDS011;10605;52.968;8.844;2023-12-20T01:48:08;20.58;;;3.40;;
20890;SDS011;10605;52.968;8.844;2023-12-20T01:50:35;15.45;;;2.55;;
20890;SDS011;10605;52.968;8.844;2023-12-20T01:53:02;15.57;;;3.05;;
20890;SDS011;10605;52.968;8.844;2023-12-20T01:55:31;12.32;;;2.95;;
20890;SDS011;10605;52.968;8.844;2023-12-20T01:57:58;19.13;;;2.85;;
20890;SDS011;10605;52.968;8.844;2023-12-20T02:00:24;28.42;;;3.28;;
20890;SDS011;10605;52.968;8.844;2023-12-20T02:02:52;16.15;;;3.88;;
20890;SDS011;10605;52.968;8.844;2023-12-20T02:05:20;25.75;;;3.83;;
20890;SDS011;10605;52.968;8.844;2023-12-20T02:07:47;14.60;;;3.35;;
20890;SDS011;10605;52.968;8.844;2023-12-20T02:10:13;11.00;;;2.50;;
20890;SDS011;10605;52.968;8.844;2023-12-20T02:12:40;21.95;;;3.42;;
20890;SDS011;10605;52.968;8.844;2023-12-20T02:15:06;19.10;;;2.60;;
20890;SDS011;10605;52.968;8.844;2023-12-20T02:17:32;12.05;;;2.83;;
20890;SDS011;10605;52.968;8.844;2023-12-20T02:19:58;22.15;;;2.95;;
20890;SDS011;10605;52.968;8.844;2023-12-20T02:22:24;20.05;;;2.95;;
20890;SDS011;10605;52.968;8.844;2023-12-20T02:24:50;21.52;;;3.88;;
20890;SDS011;10605;52.968;8.844;2023-12-20T02:27:16;11.13;;;2.78;;
20890;SDS011;10605;52.968;8.844;2023-12-20T02:29:44;18.92;;;3.80;;
20890;SDS011;10605;52.968;8.844;2023-12-20T02:32:12;15.75;;;2.65;;
20890;SDS011;10605;52.968;8.844;2023-12-20T02:34:37;20.90;;;2.83;;
20890;SDS011;10605;52.968;8.844;2023-12-20T02:37:03;16.08;;;2.88;;
20890;SDS011;10605;52.968;8.844;2023-12-20T02:39:29;16.70;;;3.00;;
20890;SDS011;10605;52.968;8.844;2023-12-20T02:41:55;18.25;;;2.95;;
20890;SDS011;10605;52.968;8.844;2023-12-20T02:44:21;20.77;;;3.28;;
20890;SDS011;10605;52.968;8.844;2023-12-20T02:46:46;16.45;;;3.40;;
20890;SDS011;10605;52.968;8.844;2023-12-20T02:49:12;18.02;;;4.05;;
20890;SDS011;10605;52.968;8.844;2023-12-20T02:51:37;24.70;;;3.30;;
20890;SDS011;10605;52.968;8.844;2023-12-20T02:54:03;17.27;;;3.80;;
20890;SDS011;10605;52.968;8.844;2023-12-20T02:56:30;19.50;;;2.80;;
20890;SDS011;10605;52.968;8.844;2023-12-20T02:58:56;17.58;;;2.95;;
20890;SDS011;10605;52.968;8.844;2023-12-20T03:01:22;19.98;;;3.95;;
20890;SDS011;10605;52.968;8.844;2023-12-20T03:03:48;15.65;;;3.13;;
20890;SDS011;10605;52.968;8.844;2023-12-20T03:06:16;11.77;;;3.30;;
20890;SDS011;10605;52.968;8.844;2023-12-20T03:08:45;18.20;;;2.95;;
20890;SDS011;10605;52.968;8.844;2023-12-20T03:11:11;24.80;;;4.82;;
20890;SDS011;10605;52.968;8.844;2023-12-20T03:13:37;25.08;;;3.80;;
20890;SDS011;10605;52.968;8.844;2023-12-20T03:16:12;22.88;;;3.58;;
20890;SDS011;10605;52.968;8.844;2023-12-20T03:18:38;13.27;;;3.63;;
20890;SDS011;10605;52.968;8.844;2023-12-20T03:21:04;19.73;;;3.55;;
20890;SDS011;10605;52.968;8.844;2023-12-20T03:23:30;20.25;;;3.08;;
20890;SDS011;10605;52.968;8.844;2023-12-20T03:25:58;24.00;;;4.20;;
20890;SDS011;10605;52.968;8.844;2023-12-20T03:28:24;16.73;;;4.13;;
20890;SDS011;10605;52.968;8.844;2023-12-20T03:30:51;14.98;;;3.88;;
20890;SDS011;10605;52.968;8.844;2023-12-20T03:33:16;25.23;;;4.95;;
20890;SDS011;10605;52.968;8.844;2023-12-20T03:35:42;18.17;;;3.65;;
20890;SDS011;10605;52.968;8.844;2023-12-20T03:38:08;19.08;;;4.35;;
20890;SDS011;10605;52.968;8.844;2023-12-20T03:40:34;23.67;;;4.70;;
20890;SDS011;10605;52.968;8.844;2023-12-20T03:42:59;24.48;;;5.15;;
20890;SDS011;10605;52.968;8.844;2023-12-20T03:45:25;27.23;;;4.97;;
20890;SDS011;10605;52.968;8.844;2023-12-20T03:47:50;17.92;;;4.53;;
20890;SDS011;10605;52.968;8.844;2023-12-20T03:50:20;19.50;;;4.60;;
20890;SDS011;10605;52.968;8.844;2023-12-20T03:52:49;35.63;;;4.75;;
20890;SDS011;10605;52.968;8.844;2023-12-20T03:55:15;24.73;;;4.88;;
20890;SDS011;10605;52.968;8.844;2023-12-20T03:57:40;21.95;;;5.18;;
20890;SDS011;10605;52.968;8.844;2023-12-20T04:00:09;23.50;;;5.10;;
20890;SDS011;10605;52.968;8.844;2023-12-20T04:02:36;23.55;;;5.30;;
20890;SDS011;10605;52.968;8.844;2023-12-20T04:05:05;28.58;;;4.82;;
20890;SDS011;10605;52.968;8.844;2023-12-20T04:07:32;19.35;;;5.07;;
20890;SDS011;10605;52.968;8.844;2023-12-20T04:09:57;39.50;;;5.63;;
20890;SDS011;10605;52.968;8.844;2023-12-20T04:12:23;24.92;;;5.72;;
20890;SDS011;10605;52.968;8.844;2023-12-20T04:14:49;25.95;;;5.65;;
20890;SDS011;10605;52.968;8.844;2023-12-20T04:17:15;20.08;;;5.20;;
20890;SDS011;10605;52.968;8.844;2023-12-20T04:19:41;25.25;;;5.28;;
20890;SDS011;10605;52.968;8.844;2023-12-20T04:22:09;23.17;;;5.30;;
20890;SDS011;10605;52.968;8.844;2023-12-20T04:24:35;24.92;;;6.35;;
20890;SDS011;10605;52.968;8.844;2023-12-20T04:27:01;21.23;;;5.35;;
20890;SDS011;10605;52.968;8.844;2023-12-20T04:29:27;24.33;;;5.05;;
20890;SDS011;10605;52.968;8.844;2023-12-20T04:31:52;31.05;;;5.78;;
20890;SDS011;10605;52.968;8.844;2023-12-20T04:34:18;30.20;;;5.57;;
20890;SDS011;10605;52.968;8.844;2023-12-20T04:36:44;22.92;;;5.40;;
20890;SDS011;10605;52.968;8.844;2023-12-20T04:39:11;28.77;;;5.82;;
20890;SDS011;10605;52.968;8.844;2023-12-20T04:41:38;23.58;;;5.15;;
20890;SDS011;10605;52.968;8.844;2023-12-20T04:44:04;24.35;;;5.75;;
20890;SDS011;10605;52.968;8.844;2023-12-20T04:46:31;20.08;;;4.50;;
20890;SDS011;10605;52.968;8.844;2023-12-20T04:48:57;25.15;;;5.60;;
20890;SDS011;10605;52.968;8.844;2023-12-20T04:51:22;31.20;;;5.18;;
20890;SDS011;10605;52.968;8.844;2023-12-20T04:53:48;25.80;;;5.57;;
20890;SDS011;10605;52.968;8.844;2023-12-20T04:56:14;35.30;;;6.03;;
20890;SDS011;10605;52.968;8.844;2023-12-20T04:58:39;27.67;;;5.47;;
20890;SDS011;10605;52.968;8.844;2023-12-20T05:01:08;34.47;;;5.78;;
20890;SDS011;10605;52.968;8.844;2023-12-20T05:03:34;22.98;;;4.80;;
20890;SDS011;10605;52.968;8.844;2023-12-20T05:06:00;20.90;;;5.20;;
20890;SDS011;10605;52.968;8.844;2023-12-20T05:08:25;32.75;;;5.68;;
20890;SDS011;10605;52.968;8.844;2023-12-20T05:10:54;24.90;;;5.03;;
20890;SDS011;10605;52.968;8.844;2023-12-20T05:13:20;21.40;;;4.85;;
20890;SDS011;10605;52.968;8.844;2023-12-20T05:15:45;27.83;;;4.75;;
20890;SDS011;10605;52.968;8.844;2023-12-20T05:18:11;25.50;;;4.97;;
20890;SDS011;10605;52.968;8.844;2023-12-20T05:20:38;23.30;;;5.75;;
20890;SDS011;10605;52.968;8.844;2023-12-20T05:23:03;28.23;;;5.20;;
20890;SDS011;10605;52.968;8.844;2023-12-20T05:25:29;18.80;;;4.90;;
20890;SDS011;10605;52.968;8.844;2023-12-20T05:27:54;26.83;;;6.20;;
20890;SDS011;10605;52.968;8.844;2023-12-20T05:30:21;23.80;;;5.68;;
20890;SDS011;10605;52.968;8.844;2023-12-20T05:32:46;29.27;;;5.13;;
20890;SDS011;10605;52.968;8.844;2023-12-20T05:35:12;27.35;;;6.13;;
20890;SDS011;10605;52.968;8.844;2023-12-20T05:37:38;27.38;;;6.07;;
20890;SDS011;10605;52.968;8.844;2023-12-20T05:40:03;20.40;;;4.70;;
20890;SDS011;10605;52.968;8.844;2023-12-20T05:42:29;27.88;;;5.30;;
20890;SDS011;10605;52.968;8.844;2023-12-20T05:44:55;32.22;;;5.38;;
20890;SDS011;10605;52.968;8.844;2023-12-20T05:47:20;26.80;;;4.28;;
20890;SDS011;10605;52.968;8.844;2023-12-20T05:49:46;19.50;;;4.85;;
20890;SDS011;10605;52.968;8.844;2023-12-20T05:52:12;29.67;;;4.85;;
20890;SDS011;10605;52.968;8.844;2023-12-20T05:54:37;18.35;;;4.22;;
20890;SDS011;10605;52.968;8.844;2023-12-20T05:57:03;23.48;;;5.40;;
20890;SDS011;10605;52.968;8.844;2023-12-20T05:59:29;27.02;;;5.32;;
20890;SDS011;10605;52.968;8.844;2023-12-20T06:01:54;23.80;;;4.38;;
20890;SDS011;10605;52.968;8.844;2023-12-20T06:04:20;28.02;;;4.78;;
20890;SDS011;10605;52.968;8.844;2023-12-20T06:06:46;24.48;;;3.60;;
20890;SDS011;10605;52.968;8.844;2023-12-20T06:09:12;28.15;;;5.55;;
20890;SDS011;10605;52.968;8.844;2023-12-20T06:11:37;23.48;;;5.28;;
20890;SDS011;10605;52.968;8.844;2023-12-20T06:14:03;37.67;;;5.95;;
20890;SDS011;10605;52.968;8.844;2023-12-20T06:16:28;28.02;;;5.75;;
20890;SDS011;10605;52.968;8.844;2023-12-20T06:18:54;23.92;;;4.53;;
20890;SDS011;10605;52.968;8.844;2023-12-20T06:21:20;33.63;;;7.15;;
20890;SDS011;10605;52.968;8.844;2023-12-20T06:23:46;19.67;;;5.13;;
20890;SDS011;10605;52.968;8.844;2023-12-20T06:26:11;36.03;;;6.63;;
20890;SDS011;10605;52.968;8.844;2023-12-20T06:28:37;22.52;;;4.70;;
20890;SDS011;10605;52.968;8.844;2023-12-20T06:31:02;35.03;;;5.85;;
20890;SDS011;10605;52.968;8.844;2023-12-20T06:33:28;23.85;;;5.05;;
20890;SDS011;10605;52.968;8.844;2023-12-20T06:35:56;29.23;;;5.65;;
20890;SDS011;10605;52.968;8.844;2023-12-20T06:38:22;24.55;;;6.40;;
20890;SDS011;10605;52.968;8.844;2023-12-20T06:40:48;22.15;;;4.75;;
20890;SDS011;10605;52.968;8.844;2023-12-20T06:43:14;23.30;;;5.18;;
20890;SDS011;10605;52.968;8.844;2023-12-20T06:45:39;29.52;;;6.30;;
20890;SDS011;10605;52.968;8.844;2023-12-20T06:48:05;27.27;;;5.28;;
20890;SDS011;10605;52.968;8.844;2023-12-20T06:50:31;28.27;;;5.88;;
20890;SDS011;10605;52.968;8.844;2023-12-20T06:52:57;33.30;;;6.95;;
20890;SDS011;10605;52.968;8.844;2023-12-20T06:55:22;29.80;;;6.50;;
20890;SDS011;10605;52.968;8.844;2023-12-20T06:57:48;33.38;;;6.38;;
20890;SDS011;10605;52.968;8.844;2023-12-20T07:00:14;28.80;;;5.90;;
20890;SDS011;10605;52.968;8.844;2023-12-20T07:02:40;25.73;;;5.38;;
20890;SDS011;10605;52.968;8.844;2023-12-20T07:05:06;36.15;;;5.70;;
20890;SDS011;10605;52.968;8.844;2023-12-20T07:07:32;33.53;;;5.88;;
20890;SDS011;10605;52.968;8.844;2023-12-20T07:09:57;27.70;;;5.90;;
20890;SDS011;10605;52.968;8.844;2023-12-20T07:12:23;30.67;;;5.07;;
20890;SDS011;10605;52.968;8.844;2023-12-20T07:14:48;29.02;;;5.40;;
20890;SDS011;10605;52.968;8.844;2023-12-20T07:17:14;28.08;;;5.70;;
20890;SDS011;10605;52.968;8.844;2023-12-20T07:19:40;28.40;;;5.90;;
20890;SDS011;10605;52.968;8.844;2023-12-20T07:22:06;42.53;;;7.20;;
20890;SDS011;10605;52.968;8.844;2023-12-20T07:24:32;34.40;;;6.70;;
20890;SDS011;10605;52.968;8.844;2023-12-20T07:26:59;32.45;;;6.25;;
20890;SDS011;10605;52.968;8.844;2023-12-20T07:29:25;36.25;;;6.30;;
20890;SDS011;10605;52.968;8.844;2023-12-20T07:31:52;40.88;;;8.52;;
20890;SDS011;10605;52.968;8.844;2023-12-20T07:34:18;34.53;;;8.00;;
20890;SDS011;10605;52.968;8.844;2023-12-20T07:36:47;30.90;;;6.57;;
20890;SDS011;10605;52.968;8.844;2023-12-20T07:39:13;36.38;;;5.25;;
20890;SDS011;10605;52.968;8.844;2023-12-20T07:41:39;29.95;;;6.10;;
20890;SDS011;10605;52.968;8.844;2023-12-20T07:44:05;33.13;;;6.10;;
20890;SDS011;10605;52.968;8.844;2023-12-20T07:46:31;34.95;;;6.13;;
20890;SDS011;10605;52.968;8.844;2023-12-20T07:48:57;32.03;;;5.88;;
20890;SDS011;10605;52.968;8.844;2023-12-20T07:51:22;26.48;;;6.00;;
20890;SDS011;10605;52.968;8.844;2023-12-20T07:53:48;29.27;;;6.28;;
20890;SDS011;10605;52.968;8.844;2023-12-20T07:56:17;30.02;;;6.10;;
20890;SDS011;10605;52.968;8.844;2023-12-20T07:58:44;29.58;;;6.35;;
20890;SDS011;10605;52.968;8.844;2023-12-20T08:01:11;24.98;;;6.25;;
20890;SDS011;10605;52.968;8.844;2023-12-20T08:03:36;22.95;;;6.32;;
20890;SDS011;10605;52.968;8.844;2023-12-20T08:06:02;29.88;;;5.85;;
20890;SDS011;10605;52.968;8.844;2023-12-20T08:08:29;23.83;;;6.43;;
20890;SDS011;10605;52.968;8.844;2023-12-20T08:10:54;29.42;;;5.82;;
20890;SDS011;10605;52.968;8.844;2023-12-20T08:13:20;29.45;;;6.78;;
20890;SDS011;10605;52.968;8.844;2023-12-20T08:15:50;24.42;;;4.70;;
20890;SDS011;10605;52.968;8.844;2023-12-20T08:18:15;30.40;;;5.80;;
20890;SDS011;10605;52.968;8.844;2023-12-20T08:20:41;23.88;;;5.35;;
20890;SDS011;10605;52.968;8.844;2023-12-20T08:23:06;34.20;;;5.60;;
20890;SDS011;10605;52.968;8.844;2023-12-20T08:25:32;34.03;;;5.57;;
20890;SDS011;10605;52.968;8.844;2023-12-20T08:27:57;29.08;;;5.63;;
20890;SDS011;10605;52.968;8.844;2023-12-20T08:30:23;25.80;;;5.68;;
20890;SDS011;10605;52.968;8.844;2023-12-20T08:32:50;24.80;;;5.18;;
20890;SDS011;10605;52.968;8.844;2023-12-20T08:35:15;30.92;;;5.40;;
20890;SDS011;10605;52.968;8.844;2023-12-20T08:37:42;29.40;;;5.72;;
20890;SDS011;10605;52.968;8.844;2023-12-20T08:40:08;27.52;;;5.45;;
20890;SDS011;10605;52.968;8.844;2023-12-20T08:42:34;29.13;;;5.32;;
20890;SDS011;10605;52.968;8.844;2023-12-20T08:45:00;25.67;;;5.18;;
20890;SDS011;10605;52.968;8.844;2023-12-20T08:47:26;22.13;;;4.65;;
20890;SDS011;10605;52.968;8.844;2023-12-20T08:49:52;23.00;;;5.07;;
20890;SDS011;10605;52.968;8.844;2023-12-20T08:52:21;15.48;;;3.97;;
20890;SDS011;10605;52.968;8.844;2023-12-20T08:54:48;20.30;;;4.40;;
20890;SDS011;10605;52.968;8.844;2023-12-20T08:57:16;20.75;;;4.57;;
20890;SDS011;10605;52.968;8.844;2023-12-20T08:59:46;23.88;;;4.20;;
20890;SDS011;10605;52.968;8.844;2023-12-20T09:02:12;20.83;;;4.70;;
20890;SDS011;10605;52.968;8.844;2023-12-20T09:04:38;22.23;;;5.00;;
20890;SDS011;10605;52.968;8.844;2023-12-20T09:07:04;26.40;;;3.92;;
20890;SDS011;10605;52.968;8.844;2023-12-20T09:09:30;22.95;;;4.20;;
20890;SDS011;10605;52.968;8.844;2023-12-20T09:11:57;23.85;;;4.97;;
20890;SDS011;10605;52.968;8.844;2023-12-20T09:14:23;25.83;;;4.93;;
20890;SDS011;10605;52.968;8.844;2023-12-20T09:16:48;19.63;;;4.13;;
20890;SDS011;10605;52.968;8.844;2023-12-20T09:19:16;25.38;;;4.90;;
20890;SDS011;10605;52.968;8.844;2023-12-20T09:21:42;21.50;;;4.40;;
20890;SDS011;10605;52.968;8.844;2023-12-20T09:24:08;23.52;;;4.80;;
20890;SDS011;10605;52.968;8.844;2023-12-20T09:26:34;25.92;;;4.15;;
20890;SDS011;10605;52.968;8.844;2023-12-20T09:28:59;18.77;;;4.70;;
20890;SDS011;10605;52.968;8.844;2023-12-20T09:31:25;25.60;;;4.60;;
20890;SDS011;10605;52.968;8.844;2023-12-20T09:33:51;23.35;;;5.25;;
20890;SDS011;10605;52.968;8.844;2023-12-20T09:36:16;19.95;;;4.15;;
20890;SDS011;10605;52.968;8.844;2023-12-20T09:38:42;25.63;;;4.65;;
20890;SDS011;10605;52.968;8.844;2023-12-20T09:41:08;26.42;;;5.10;;
20890;SDS011;10605;52.968;8.844;2023-12-20T09:43:35;19.45;;;4.85;;
20890;SDS011;10605;52.968;8.844;2023-12-20T09:46:02;23.10;;;4.82;;
20890;SDS011;10605;52.968;8.844;2023-12-20T09:48:31;18.63;;;4.43;;
20890;SDS011;10605;52.968;8.844;2023-12-20T09:50:57;16.80;;;4.70;;
20890;SDS011;10605;52.968;8.844;2023-12-20T09:53:23;15.38;;;4.40;;
20890;SDS011;10605;52.968;8.844;2023-12-20T09:55:55;19.08;;;4.45;;
20890;SDS011;10605;52.968;8.844;2023-12-20T09:58:24;19.58;;;4.13;;
20890;SDS011;10605;52.968;8.844;2023-12-20T10:00:49;19.00;;;3.78;;
20890;SDS011;10605;52.968;8.844;2023-12-20T10:03:16;15.10;;;4.18;;
20890;SDS011;10605;52.968;8.844;2023-12-20T10:05:43;28.35;;;5.38;;
20890;SDS011;10605;52.968;8.844;2023-12-20T10:08:09;8.00;;;1.48;;
20890;SDS011;10605;52.968;8.844;2023-12-20T10:10:35;2.55;;;1.10;;
20890;SDS011;10605;52.968;8.844;2023-12-20T10:13:08;2.53;;;0.77;;
20890;SDS011;10605;52.968;8.844;2023-12-20T10:15:35;1.30;;;0.60;;
20890;SDS011;10605;52.968;8.844;2023-12-20T10:18:02;1.38;;;0.52;;
20890;SDS011;10605;52.968;8.844;2023-12-20T10:20:28;0.73;;;0.50;;
20890;SDS011;10605;52.968;8.844;2023-12-20T10:22:57;2.53;;;0.55;;
20890;SDS011;10605;52.968;8.844;2023-12-20T10:25:25;1.63;;;0.57;;
20890;SDS011;10605;52.968;8.844;2023-12-20T10:28:08;3.20;;;0.95;;
20890;SDS011;10605;52.968;8.844;2023-12-20T10:30:38;3.95;;;1.17;;
20890;SDS011;10605;52.968;8.844;2023-12-20T10:33:05;1.60;;;0.77;;
20890;SDS011;10605;52.968;8.844;2023-12-20T10:35:34;4.40;;;0.90;;
20890;SDS011;10605;52.968;8.844;2023-12-20T10:38:02;1.38;;;0.63;;
20890;SDS011;10605;52.968;8.844;2023-12-20T10:40:30;3.85;;;1.17;;
20890;SDS011;10605;52.968;8.844;2023-12-20T10:42:56;1.50;;;0.82;;
20890;SDS011;10605;52.968;8.844;2023-12-20T10:45:24;7.25;;;3.17;;
20890;SDS011;10605;52.968;8.844;2023-12-20T10:47:50;5.85;;;3.10;;
20890;SDS011;10605;52.968;8.844;2023-12-20T10:50:16;4.68;;;1.55;;
20890;SDS011;10605;52.968;8.844;2023-12-20T10:52:44;6.22;;;1.00;;
20890;SDS011;10605;52.968;8.844;2023-12-20T10:55:10;6.10;;;1.08;;
20890;SDS011;10605;52.968;8.844;2023-12-20T10:57:36;5.95;;;1.02;;
20890;SDS011;10605;52.968;8.844;2023-12-20T11:00:02;3.67;;;0.98;;
20890;SDS011;10605;52.968;8.844;2023-12-20T11:02:31;4.63;;;1.17;;
20890;SDS011;10605;52.968;8.844;2023-12-20T11:05:13;11.02;;;1.60;;
20890;SDS011;10605;52.968;8.844;2023-12-20T11:07:50;7.20;;;1.08;;
20890;SDS011;10605;52.968;8.844;2023-12-20T11:10:24;4.28;;;1.20;;
20890;SDS011;10605;52.968;8.844;2023-12-20T11:15:35;7.30;;;1.30;;
20890;SDS011;10605;52.968;8.844;2023-12-20T11:18:01;5.13;;;1.27;;
20890;SDS011;10605;52.968;8.844;2023-12-20T11:20:38;8.85;;;1.60;;
20890;SDS011;10605;52.968;8.844;2023-12-20T11:23:05;6.05;;;1.38;;
20890;SDS011;10605;52.968;8.844;2023-12-20T11:26:13;9.18;;;1.30;;
20890;SDS011;10605;52.968;8.844;2023-12-20T11:28:24;14.00;;;1.90;;
20890;SDS011;10605;52.968;8.844;2023-12-20T11:30:54;7.40;;;1.40;;
20890;SDS011;10605;52.968;8.844;2023-12-20T11:33:24;9.80;;;1.98;;
20890;SDS011;10605;52.968;8.844;2023-12-20T11:35:51;11.52;;;1.50;;
20890;SDS011;10605;52.968;8.844;2023-12-20T11:38:20;10.27;;;2.15;;
20890;SDS011;10605;52.968;8.844;2023-12-20T11:40:47;11.77;;;1.40;;
20890;SDS011;10605;52.968;8.844;2023-12-20T11:46:03;7.30;;;1.63;;
20890;SDS011;10605;52.968;8.844;2023-12-20T11:48:34;10.23;;;2.50;;
20890;SDS011;10605;52.968;8.844;2023-12-20T11:51:01;10.27;;;2.38;;
20890;SDS011;10605;52.968;8.844;2023-12-20T11:53:28;10.45;;;1.98;;
20890;SDS011;10605;52.968;8.844;2023-12-20T11:55:55;17.15;;;1.83;;
20890;SDS011;10605;52.968;8.844;2023-12-20T11:58:21;9.93;;;1.80;;
20890;SDS011;10605;52.968;8.844;2023-12-20T12:00:48;14.23;;;2.17;;
20890;SDS011;10605;52.968;8.844;2023-12-20T12:03:14;8.18;;;1.63;;
20890;SDS011;10605;52.968;8.844;2023-12-20T12:05:40;9.35;;;1.85;;
20890;SDS011;10605;52.968;8.844;2023-12-20T12:08:06;10.13;;;1.70;;
20890;SDS011;10605;52.968;8.844;2023-12-20T12:10:32;9.40;;;1.88;;
20890;SDS011;10605;52.968;8.844;2023-12-20T12:12:59;12.73;;;3.00;;
20890;SDS011;10605;52.968;8.844;2023-12-20T12:15:25;13.80;;;2.17;;
20890;SDS011;10605;52.968;8.844;2023-12-20T12:17:55;10.90;;;2.45;;
20890;SDS011;10605;52.968;8.844;2023-12-20T12:20:21;12.38;;;2.17;;
20890;SDS011;10605;52.968;8.844;2023-12-20T12:23:01;18.80;;;2.00;;
20890;SDS011;10605;52.968;8.844;2023-12-20T12:25:29;13.35;;;1.77;;
20890;SDS011;10605;52.968;8.844;2023-12-20T12:27:56;8.20;;;2.67;;
20890;SDS011;10605;52.968;8.844;2023-12-20T12:30:23;21.88;;;4.15;;
20890;SDS011;10605;52.968;8.844;2023-12-20T12:32:49;8.98;;;2.47;;
20890;SDS011;10605;52.968;8.844;2023-12-20T12:35:16;15.23;;;4.28;;
20890;SDS011;10605;52.968;8.844;2023-12-20T12:37:42;10.20;;;3.70;;
20890;SDS011;10605;52.968;8.844;2023-12-20T12:40:12;19.90;;;3.72;;
20890;SDS011;10605;52.968;8.844;2023-12-20T12:42:39;11.75;;;2.55;;
20890;SDS011;10605;52.968;8.844;2023-12-20T12:45:06;19.98;;;3.17;;
20890;SDS011;10605;52.968;8.844;2023-12-20T12:47:32;9.02;;;2.75;;
20890;SDS011;10605;52.968;8.844;2023-12-20T12:49:58;16.23;;;3.78;;
20890;SDS011;10605;52.968;8.844;2023-12-20T12:52:24;15.35;;;2.28;;
20890;SDS011;10605;52.968;8.844;2023-12-20T12:54:51;22.27;;;2.63;;
20890;SDS011;10605;52.968;8.844;2023-12-20T12:57:17;15.50;;;3.17;;
20890;SDS011;10605;52.968;8.844;2023-12-20T12:59:43;15.07;;;2.70;;
20890;SDS011;10605;52.968;8.844;2023-12-20T13:02:11;9.98;;;2.60;;
20890;SDS011;10605;52.968;8.844;2023-12-20T13:04:40;11.20;;;2.40;;
20890;SDS011;10605;52.968;8.844;2023-12-20T13:07:06;14.45;;;2.10;;
20890;SDS011;10605;52.968;8.844;2023-12-20T13:09:37;12.75;;;2.50;;
20890;SDS011;10605;52.968;8.844;2023-12-20T13:12:04;18.30;;;2.70;;
20890;SDS011;10605;52.968;8.844;2023-12-20T13:14:33;15.57;;;3.63;;
20890;SDS011;10605;52.968;8.844;2023-12-20T13:16:59;14.98;;;2.83;;
20890;SDS011;10605;52.968;8.844;2023-12-20T13:19:29;8.20;;;2.45;;
20890;SDS011;10605;52.968;8.844;2023-12-20T13:21:55;17.38;;;2.33;;
20890;SDS011;10605;52.968;8.844;2023-12-20T13:24:21;7.63;;;2.72;;
20890;SDS011;10605;52.968;8.844;2023-12-20T13:26:46;13.45;;;2.35;;
20890;SDS011;10605;52.968;8.844;2023-12-20T13:29:12;18.00;;;2.90;;
20890;SDS011;10605;52.968;8.844;2023-12-20T13:31:38;9.70;;;2.42;;
20890;SDS011;10605;52.968;8.844;2023-12-20T13:34:05;11.52;;;2.63;;
20890;SDS011;10605;52.968;8.844;2023-12-20T13:36:31;11.57;;;2.40;;
20890;SDS011;10605;52.968;8.844;2023-12-20T13:38:56;13.85;;;2.58;;
20890;SDS011;10605;52.968;8.844;2023-12-20T13:41:22;12.05;;;2.25;;
20890;SDS011;10605;52.968;8.844;2023-12-20T13:43:48;14.25;;;2.25;;
20890;SDS011;10605;52.968;8.844;2023-12-20T13:46:13;20.70;;;2.40;;
20890;SDS011;10605;52.968;8.844;2023-12-20T13:48:39;11.70;;;2.45;;
20890;SDS011;10605;52.968;8.844;2023-12-20T13:51:05;9.90;;;2.08;;
20890;SDS011;10605;52.968;8.844;2023-12-20T13:53:31;13.30;;;2.55;;
20890;SDS011;10605;52.968;8.844;2023-12-20T13:55:57;13.57;;;2.40;;
20890;SDS011;10605;52.968;8.844;2023-12-20T13:58:22;11.65;;;2.42;;
20890;SDS011;10605;52.968;8.844;2023-12-20T14:00:48;17.17;;;3.10;;
20890;SDS011;10605;52.968;8.844;2023-12-20T14:03:14;11.98;;;2.38;;
20890;SDS011;10605;52.968;8.844;2023-12-20T14:05:40;18.27;;;3.08;;
20890;SDS011;10605;52.968;8.844;2023-12-20T14:08:06;13.77;;;2.58;;
20890;SDS011;10605;52.968;8.844;2023-12-20T14:10:32;19.13;;;2.33;;
20890;SDS011;10605;52.968;8.844;2023-12-20T14:12:58;14.57;;;2.67;;
20890;SDS011;10605;52.968;8.844;2023-12-20T14:15:23;19.95;;;3.17;;
20890;SDS011;10605;52.968;8.844;2023-12-20T14:17:50;15.32;;;2.30;;
20890;SDS011;10605;52.968;8.844;2023-12-20T14:20:16;15.43;;;2.30;;
20890;SDS011;10605;52.968;8.844;2023-12-20T14:22:41;17.42;;;3.35;;
20890;SDS011;10605;52.968;8.844;2023-12-20T14:25:11;15.68;;;2.75;;
20890;SDS011;10605;52.968;8.844;2023-12-20T14:27:38;15.45;;;2.63;;
20890;SDS011;10605;52.968;8.844;2023-12-20T14:30:04;12.52;;;2.63;;
20890;SDS011;10605;52.968;8.844;2023-12-20T14:32:31;15.82;;;2.38;;
20890;SDS011;10605;52.968;8.844;2023-12-20T14:34:57;14.35;;;2.30;;
20890;SDS011;10605;52.968;8.844;2023-12-20T14:37:22;12.95;;;2.65;;